sensor_id;sensor_type;location;lat;lon;timestamp;pressure;altitude;pressure_sealevel;temperature;humidity
55763;BME280;42162;51.958;5.426;2023-08-12T00:00:22;101790.50;;;22.23;70.21
55763;BME280;42162;51.958;5.426;2023-08-12T00:02:49;101795.13;;;22.19;70.40
55763;BME280;42162;51.958;5.426;2023-08-12T00:05:16;101790.09;;;22.15;70.61
55763;BME280;42162;51.958;5.426;2023-08-12T00:07:43;101786.19;;;22.06;71.01
55763;BME280;42162;51.958;5.426;2023-08-12T00:10:11;101783.31;;;21.95;71.34
55763;BME280;42162;51.958;5.426;2023-08-12T00:12:38;101781.81;;;21.91;71.47
55763;BME280;42162;51.958;5.426;2023-08-12T00:15:07;101788.78;;;21.92;71.50
55763;BME280;42162;51.958;5.426;2023-08-12T00:17:35;101786.06;;;21.93;71.90
55763;BME280;42162;51.958;5.426;2023-08-12T00:20:09;101783.25;;;21.96;71.76
55763;BME280;42162;51.958;5.426;2023-08-12T00:22:38;101782.28;;;21.97;71.54
55763;BME280;42162;51.958;5.426;2023-08-12T00:25:06;101778.22;;;21.92;72.00
55763;BME280;42162;51.958;5.426;2023-08-12T00:27:34;101780.28;;;21.86;72.01
55763;BME280;42162;51.958;5.426;2023-08-12T00:30:01;101783.47;;;21.77;72.68
55763;BME280;42162;51.958;5.426;2023-08-12T00:32:28;101766.41;;;21.67;72.99
55763;BME280;42162;51.958;5.426;2023-08-12T00:34:56;101757.06;;;21.61;72.99
55763;BME280;42162;51.958;5.426;2023-08-12T00:37:23;101763.41;;;21.57;73.29
55763;BME280;42162;51.958;5.426;2023-08-12T00:39:51;101764.78;;;21.64;73.16
55763;BME280;42162;51.958;5.426;2023-08-12T00:42:18;101761.97;;;21.67;73.43
55763;BME280;42162;51.958;5.426;2023-08-12T00:44:45;101757.63;;;21.66;73.24
55763;BME280;42162;51.958;5.426;2023-08-12T00:47:13;101747.31;;;21.62;73.61
55763;BME280;42162;51.958;5.426;2023-08-12T00:49:40;101747.44;;;21.58;73.57
55763;BME280;42162;51.958;5.426;2023-08-12T00:52:12;101738.34;;;21.64;73.32
55763;BME280;42162;51.958;5.426;2023-08-12T00:54:39;101735.44;;;21.69;73.20
55763;BME280;42162;51.958;5.426;2023-08-12T00:57:06;101732.63;;;21.72;73.06
55763;BME280;42162;51.958;5.426;2023-08-12T00:59:38;101732.28;;;21.78;73.12
55763;BME280;42162;51.958;5.426;2023-08-12T01:02:08;101738.81;;;21.87;73.22
55763;BME280;42162;51.958;5.426;2023-08-12T01:04:35;101726.84;;;21.96;72.54
55763;BME280;42162;51.958;5.426;2023-08-12T01:07:02;101724.59;;;22.04;72.57
55763;BME280;42162;51.958;5.426;2023-08-12T01:09:31;101726.13;;;22.08;72.62
55763;BME280;42162;51.958;5.426;2023-08-12T01:12:12;101727.00;;;22.09;72.22
55763;BME280;42162;51.958;5.426;2023-08-12T01:15:02;101724.41;;;22.07;71.99
55763;BME280;42162;51.958;5.426;2023-08-12T01:17:33;101721.94;;;22.04;72.49
55763;BME280;42162;51.958;5.426;2023-08-12T01:20:03;101716.28;;;21.96;72.57
55763;BME280;42162;51.958;5.426;2023-08-12T01:22:40;101713.13;;;21.89;72.60
55763;BME280;42162;51.958;5.426;2023-08-12T01:25:08;101711.53;;;21.86;72.97
55763;BME280;42162;51.958;5.426;2023-08-12T01:27:36;101714.34;;;21.83;72.74
55763;BME280;42162;51.958;5.426;2023-08-12T01:30:05;101712.06;;;21.77;73.08
55763;BME280;42162;51.958;5.426;2023-08-12T01:35:11;101696.06;;;21.64;73.79
55763;BME280;42162;51.958;5.426;2023-08-12T01:37:42;101693.16;;;21.53;73.96
55763;BME280;42162;51.958;5.426;2023-08-12T01:40:10;101689.94;;;21.48;74.53
55763;BME280;42162;51.958;5.426;2023-08-12T01:42:39;101697.19;;;21.44;74.46
55763;BME280;42162;51.958;5.426;2023-08-12T01:45:07;101688.56;;;21.40;74.40
55763;BME280;42162;51.958;5.426;2023-08-12T01:47:34;101681.75;;;21.36;74.81
55763;BME280;42162;51.958;5.426;2023-08-12T01:50:01;101685.44;;;21.34;74.82
55763;BME280;42162;51.958;5.426;2023-08-12T01:52:28;101678.63;;;21.30;75.10
55763;BME280;42162;51.958;5.426;2023-08-12T01:54:55;101681.00;;;21.34;75.33
55763;BME280;42162;51.958;5.426;2023-08-12T01:57:22;101679.13;;;21.36;74.95
55763;BME280;42162;51.958;5.426;2023-08-12T01:59:51;101678.19;;;21.37;75.23
55763;BME280;42162;51.958;5.426;2023-08-12T02:02:18;101678.00;;;21.40;75.04
55763;BME280;42162;51.958;5.426;2023-08-12T02:04:45;101679.53;;;21.45;75.06
55763;BME280;42162;51.958;5.426;2023-08-12T02:07:12;101675.00;;;21.47;75.11
55763;BME280;42162;51.958;5.426;2023-08-12T02:09:39;101676.97;;;21.43;75.23
55763;BME280;42162;51.958;5.426;2023-08-12T02:12:07;101674.69;;;21.37;75.67
55763;BME280;42162;51.958;5.426;2023-08-12T02:14:34;101677.59;;;21.32;75.72
55763;BME280;42162;51.958;5.426;2023-08-12T02:17:03;101666.44;;;21.27;76.45
55763;BME280;42162;51.958;5.426;2023-08-12T02:19:33;101672.66;;;21.26;76.21
55763;BME280;42162;51.958;5.426;2023-08-12T02:22:04;101668.47;;;21.22;76.43
55763;BME280;42162;51.958;5.426;2023-08-12T02:24:31;101664.06;;;21.22;76.91
55763;BME280;42162;51.958;5.426;2023-08-12T02:26:58;101658.94;;;21.19;76.84
55763;BME280;42162;51.958;5.426;2023-08-12T02:29:25;101659.88;;;21.18;76.72
55763;BME280;42162;51.958;5.426;2023-08-12T02:31:52;101664.28;;;21.18;77.19
55763;BME280;42162;51.958;5.426;2023-08-12T02:34:19;101660.72;;;21.19;76.94
55763;BME280;42162;51.958;5.426;2023-08-12T02:36:46;101655.63;;;21.16;77.24
55763;BME280;42162;51.958;5.426;2023-08-12T02:39:13;101650.69;;;21.09;77.55
55763;BME280;42162;51.958;5.426;2023-08-12T02:41:40;101649.91;;;21.07;77.91
55763;BME280;42162;51.958;5.426;2023-08-12T02:44:07;101653.47;;;21.06;77.99
55763;BME280;42162;51.958;5.426;2023-08-12T02:46:34;101639.53;;;21.04;77.74
55763;BME280;42162;51.958;5.426;2023-08-12T02:49:01;101643.97;;;21.04;78.06
55763;BME280;42162;51.958;5.426;2023-08-12T02:51:28;101639.53;;;21.04;78.00
55763;BME280;42162;51.958;5.426;2023-08-12T02:53:55;101632.63;;;21.02;78.14
55763;BME280;42162;51.958;5.426;2023-08-12T02:56:22;101634.25;;;21.04;78.57
55763;BME280;42162;51.958;5.426;2023-08-12T02:58:49;101628.09;;;21.04;78.23
55763;BME280;42162;51.958;5.426;2023-08-12T03:01:16;101627.34;;;21.02;78.64
55763;BME280;42162;51.958;5.426;2023-08-12T03:03:44;101626.34;;;21.04;78.58
55763;BME280;42162;51.958;5.426;2023-08-12T03:06:11;101629.56;;;21.09;78.26
55763;BME280;42162;51.958;5.426;2023-08-12T03:08:38;101629.56;;;21.09;78.23
55763;BME280;42162;51.958;5.426;2023-08-12T03:11:06;101608.53;;;21.08;78.46
55763;BME280;42162;51.958;5.426;2023-08-12T03:13:34;101605.13;;;21.06;78.45
55763;BME280;42162;51.958;5.426;2023-08-12T03:16:01;101614.06;;;21.03;78.69
55763;BME280;42162;51.958;5.426;2023-08-12T03:18:29;101608.19;;;20.98;79.09
55763;BME280;42162;51.958;5.426;2023-08-12T03:20:56;101614.50;;;20.95;79.38
55763;BME280;42162;51.958;5.426;2023-08-12T03:23:24;101609.28;;;20.94;79.51
55763;BME280;42162;51.958;5.426;2023-08-12T03:25:51;101604.09;;;20.92;79.63
55763;BME280;42162;51.958;5.426;2023-08-12T03:28:19;101595.50;;;20.89;80.15
55763;BME280;42162;51.958;5.426;2023-08-12T03:30:53;101589.44;;;20.87;80.19
55763;BME280;42162;51.958;5.426;2023-08-12T03:33:23;101594.47;;;20.91;80.31
55763;BME280;42162;51.958;5.426;2023-08-12T03:35:51;101587.31;;;20.93;80.27
55763;BME280;42162;51.958;5.426;2023-08-12T03:38:18;101582.97;;;20.92;80.61
55763;BME280;42162;51.958;5.426;2023-08-12T03:40:46;101583.13;;;20.89;80.82
55763;BME280;42162;51.958;5.426;2023-08-12T03:43:15;101587.69;;;20.87;81.10
55763;BME280;42162;51.958;5.426;2023-08-12T03:45:44;101578.22;;;20.83;81.29
55763;BME280;42162;51.958;5.426;2023-08-12T03:48:14;101578.31;;;20.82;81.12
55763;BME280;42162;51.958;5.426;2023-08-12T03:50:41;101574.81;;;20.81;81.19
55763;BME280;42162;51.958;5.426;2023-08-12T03:53:09;101577.34;;;20.83;81.35
55763;BME280;42162;51.958;5.426;2023-08-12T03:55:38;101570.31;;;20.83;81.57
55763;BME280;42162;51.958;5.426;2023-08-12T03:58:07;101571.13;;;20.84;81.59
55763;BME280;42162;51.958;5.426;2023-08-12T04:00:34;101570.47;;;20.80;81.42
55763;BME280;42162;51.958;5.426;2023-08-12T04:03:02;101568.84;;;20.77;81.90
55763;BME280;42162;51.958;5.426;2023-08-12T04:05:29;101571.66;;;20.74;81.92
55763;BME280;42162;51.958;5.426;2023-08-12T04:07:56;101561.22;;;20.71;82.33
55763;BME280;42162;51.958;5.426;2023-08-12T04:10:23;101550.88;;;20.68;82.20
55763;BME280;42162;51.958;5.426;2023-08-12T04:12:52;101548.41;;;20.65;82.40
55763;BME280;42162;51.958;5.426;2023-08-12T04:15:19;101550.94;;;20.66;82.54
55763;BME280;42162;51.958;5.426;2023-08-12T04:17:46;101555.28;;;20.68;82.80
55763;BME280;42162;51.958;5.426;2023-08-12T04:20:13;101551.81;;;20.67;82.83
55763;BME280;42162;51.958;5.426;2023-08-12T04:22:40;101555.28;;;20.68;82.97
55763;BME280;42162;51.958;5.426;2023-08-12T04:25:07;101562.25;;;20.69;82.86
55763;BME280;42162;51.958;5.426;2023-08-12T04:27:34;101562.25;;;20.69;82.52
55763;BME280;42162;51.958;5.426;2023-08-12T04:30:02;101551.03;;;20.65;82.73
55763;BME280;42162;51.958;5.426;2023-08-12T04:32:30;101546.69;;;20.64;83.07
55763;BME280;42162;51.958;5.426;2023-08-12T04:34:58;101548.41;;;20.65;82.91
55763;BME280;42162;51.958;5.426;2023-08-12T04:37:26;101538.78;;;20.64;83.07
55763;BME280;42162;51.958;5.426;2023-08-12T04:39:55;101535.28;;;20.63;83.09
55763;BME280;42162;51.958;5.426;2023-08-12T04:42:22;101528.13;;;20.65;82.98
55763;BME280;42162;51.958;5.426;2023-08-12T04:44:49;101515.69;;;20.68;83.03
55763;BME280;42162;51.958;5.426;2023-08-12T04:47:16;101510.50;;;20.66;83.32
55763;BME280;42162;51.958;5.426;2023-08-12T04:49:44;101506.25;;;20.63;83.46
55763;BME280;42162;51.958;5.426;2023-08-12T04:52:11;101520.28;;;20.64;83.37
55763;BME280;42162;51.958;5.426;2023-08-12T04:54:38;101514.19;;;20.63;83.24
55763;BME280;42162;51.958;5.426;2023-08-12T04:57:05;101514.34;;;20.60;83.21
55763;BME280;42162;51.958;5.426;2023-08-12T04:59:32;101511.81;;;20.59;83.49
55763;BME280;42162;51.958;5.426;2023-08-12T05:02:00;101504.88;;;20.56;83.46
55763;BME280;42162;51.958;5.426;2023-08-12T05:04:33;101509.41;;;20.54;83.25
55763;BME280;42162;51.958;5.426;2023-08-12T05:07:00;101506.84;;;20.53;83.20
55763;BME280;42162;51.958;5.426;2023-08-12T05:09:28;101507.94;;;20.48;83.56
55763;BME280;42162;51.958;5.426;2023-08-12T05:11:56;101508.22;;;20.44;83.65
55763;BME280;42162;51.958;5.426;2023-08-12T05:14:23;101509.25;;;20.41;83.88
55763;BME280;42162;51.958;5.426;2023-08-12T05:16:51;101504.13;;;20.38;84.16
55763;BME280;42162;51.958;5.426;2023-08-12T05:19:19;101513.84;;;20.38;84.39
55763;BME280;42162;51.958;5.426;2023-08-12T05:21:48;101508.66;;;20.36;84.56
55763;BME280;42162;51.958;5.426;2023-08-12T05:24:15;101505.25;;;20.34;84.44
55763;BME280;42162;51.958;5.426;2023-08-12T05:26:42;101511.47;;;20.33;84.53
55763;BME280;42162;51.958;5.426;2023-08-12T05:29:09;101517.66;;;20.32;84.46
55763;BME280;42162;51.958;5.426;2023-08-12T05:31:36;101511.47;;;20.33;84.82
55763;BME280;42162;51.958;5.426;2023-08-12T05:34:04;101512.50;;;20.30;84.49
55763;BME280;42162;51.958;5.426;2023-08-12T05:36:31;101512.72;;;20.26;84.65
55763;BME280;42162;51.958;5.426;2023-08-12T05:38:58;101508.72;;;20.18;85.02
55763;BME280;42162;51.958;5.426;2023-08-12T05:41:25;101499.53;;;20.10;85.32
55763;BME280;42162;51.958;5.426;2023-08-12T05:43:52;101504.13;;;20.06;85.26
55763;BME280;42162;51.958;5.426;2023-08-12T05:46:19;101504.97;;;20.07;85.29
55763;BME280;42162;51.958;5.426;2023-08-12T05:48:46;101502.34;;;20.07;85.81
55763;BME280;42162;51.958;5.426;2023-08-12T05:51:13;101496.97;;;20.08;85.69
55763;BME280;42162;51.958;5.426;2023-08-12T05:53:40;101501.16;;;20.12;85.96
55763;BME280;42162;51.958;5.426;2023-08-12T05:56:07;101502.53;;;20.19;85.69
55763;BME280;42162;51.958;5.426;2023-08-12T05:58:34;101499.78;;;20.21;85.56
55763;BME280;42162;51.958;5.426;2023-08-12T06:01:02;101492.75;;;20.22;85.64
55763;BME280;42162;51.958;5.426;2023-08-12T06:03:29;101490.88;;;20.24;85.48
55763;BME280;42162;51.958;5.426;2023-08-12T06:05:56;101495.97;;;20.27;85.50
55763;BME280;42162;51.958;5.426;2023-08-12T06:08:23;101493.31;;;20.27;85.56
55763;BME280;42162;51.958;5.426;2023-08-12T06:10:50;101496.81;;;20.27;85.52
55763;BME280;42162;51.958;5.426;2023-08-12T06:13:17;101489.91;;;20.25;85.34
55763;BME280;42162;51.958;5.426;2023-08-12T06:15:44;101490.94;;;20.22;85.22
55763;BME280;42162;51.958;5.426;2023-08-12T06:18:12;101491.97;;;20.19;85.19
55763;BME280;42162;51.958;5.426;2023-08-12T06:20:39;101495.53;;;20.18;85.24
55763;BME280;42162;51.958;5.426;2023-08-12T06:23:07;101498.00;;;20.22;85.39
55763;BME280;42162;51.958;5.426;2023-08-12T06:25:34;101486.59;;;20.21;85.67
55763;BME280;42162;51.958;5.426;2023-08-12T06:28:03;101495.44;;;20.20;85.66
55763;BME280;42162;51.958;5.426;2023-08-12T06:30:31;101485.41;;;20.11;85.75
55763;BME280;42162;51.958;5.426;2023-08-12T06:32:58;101481.25;;;20.07;85.63
55763;BME280;42162;51.958;5.426;2023-08-12T06:35:25;101492.78;;;20.04;86.04
55763;BME280;42162;51.958;5.426;2023-08-12T06:37:52;101483.94;;;20.05;86.14
55763;BME280;42162;51.958;5.426;2023-08-12T06:40:19;101482.94;;;20.08;85.95
55763;BME280;42162;51.958;5.426;2023-08-12T06:42:46;101480.28;;;20.08;86.13
55763;BME280;42162;51.958;5.426;2023-08-12T06:45:13;101475.97;;;20.07;85.93
55763;BME280;42162;51.958;5.426;2023-08-12T06:47:41;101470.09;;;20.01;85.94
55763;BME280;42162;51.958;5.426;2023-08-12T06:50:08;101470.88;;;20.03;85.91
55763;BME280;42162;51.958;5.426;2023-08-12T06:52:35;101473.25;;;20.08;85.83
55763;BME280;42162;51.958;5.426;2023-08-12T06:55:03;101472.22;;;20.11;86.08
55763;BME280;42162;51.958;5.426;2023-08-12T06:57:30;101464.06;;;20.15;85.93
55763;BME280;42162;51.958;5.426;2023-08-12T06:59:57;101464.81;;;20.17;85.71
55763;BME280;42162;51.958;5.426;2023-08-12T07:02:24;101468.38;;;20.16;85.99
55763;BME280;42162;51.958;5.426;2023-08-12T07:04:51;101467.56;;;20.16;85.97
55763;BME280;42162;51.958;5.426;2023-08-12T07:07:18;101462.59;;;20.10;86.19
55763;BME280;42162;51.958;5.426;2023-08-12T07:09:45;101469.00;;;20.06;86.16
55763;BME280;42162;51.958;5.426;2023-08-12T07:12:13;101466.63;;;20.01;86.47
55763;BME280;42162;51.958;5.426;2023-08-12T07:14:40;101458.63;;;20.02;86.70
55763;BME280;42162;51.958;5.426;2023-08-12T07:17:07;101458.44;;;20.06;86.46
55763;BME280;42162;51.958;5.426;2023-08-12T07:19:34;101464.47;;;20.08;86.77
55763;BME280;42162;51.958;5.426;2023-08-12T07:22:01;101459.44;;;20.03;86.84
55763;BME280;42162;51.958;5.426;2023-08-12T07:24:28;101455.63;;;19.93;86.85
55763;BME280;42162;51.958;5.426;2023-08-12T07:26:55;101448.97;;;19.85;87.40
55763;BME280;42162;51.958;5.426;2023-08-12T07:29:22;101450.81;;;19.83;87.40
55763;BME280;42162;51.958;5.426;2023-08-12T07:31:49;101443.84;;;19.82;87.53
55763;BME280;42162;51.958;5.426;2023-08-12T07:34:16;101448.97;;;19.85;87.83
55763;BME280;42162;51.958;5.426;2023-08-12T07:36:43;101440.91;;;19.88;87.53
55763;BME280;42162;51.958;5.426;2023-08-12T07:39:11;101443.97;;;19.97;87.72
55763;BME280;42162;51.958;5.426;2023-08-12T07:41:38;101447.13;;;20.03;87.40
55763;BME280;42162;51.958;5.426;2023-08-12T07:44:05;101442.53;;;20.07;87.27
55763;BME280;42162;51.958;5.426;2023-08-12T07:46:33;101443.97;;;20.13;87.26
55763;BME280;42162;51.958;5.426;2023-08-12T07:49:00;101450.03;;;20.15;87.04
55763;BME280;42162;51.958;5.426;2023-08-12T07:51:27;101445.59;;;20.15;87.08
55763;BME280;42162;51.958;5.426;2023-08-12T07:53:55;101442.69;;;20.20;86.97
55763;BME280;42162;51.958;5.426;2023-08-12T07:56:22;101438.28;;;20.21;87.05
55763;BME280;42162;51.958;5.426;2023-08-12T07:58:49;101446.03;;;20.24;87.11
55763;BME280;42162;51.958;5.426;2023-08-12T08:01:16;101452.00;;;20.27;87.12
55763;BME280;42162;51.958;5.426;2023-08-12T08:03:43;101442.94;;;20.31;86.89
55763;BME280;42162;51.958;5.426;2023-08-12T08:06:10;101444.38;;;20.37;86.86
55763;BME280;42162;51.958;5.426;2023-08-12T08:08:37;101446.03;;;20.40;86.90
55763;BME280;42162;51.958;5.426;2023-08-12T08:11:05;101452.13;;;20.40;86.92
55763;BME280;42162;51.958;5.426;2023-08-12T08:13:32;101441.50;;;20.42;86.97
55763;BME280;42162;51.958;5.426;2023-08-12T08:15:59;101440.47;;;20.44;86.72
55763;BME280;42162;51.958;5.426;2023-08-12T08:18:26;101438.50;;;20.48;86.48
55763;BME280;42162;51.958;5.426;2023-08-12T08:20:53;101449.75;;;20.52;86.25
55763;BME280;42162;51.958;5.426;2023-08-12T08:23:20;101446.84;;;20.56;86.36
55763;BME280;42162;51.958;5.426;2023-08-12T08:25:47;101444.78;;;20.61;86.47
55763;BME280;42162;51.958;5.426;2023-08-12T08:28:14;101446.28;;;20.65;86.54
55763;BME280;42162;51.958;5.426;2023-08-12T08:30:41;101461.31;;;20.65;86.16
55763;BME280;42162;51.958;5.426;2023-08-12T08:33:08;101456.03;;;20.65;86.13
55763;BME280;42162;51.958;5.426;2023-08-12T08:35:36;101464.72;;;20.67;85.96
55763;BME280;42162;51.958;5.426;2023-08-12T08:38:03;101464.59;;;20.69;86.42
55763;BME280;42162;51.958;5.426;2023-08-12T08:40:30;101464.53;;;20.70;85.88
55763;BME280;42162;51.958;5.426;2023-08-12T08:43:01;101468.44;;;20.63;85.81
55763;BME280;42162;51.958;5.426;2023-08-12T08:45:32;101470.41;;;20.59;86.22
55763;BME280;42162;51.958;5.426;2023-08-12T08:48:01;101459.03;;;20.59;86.22
55763;BME280;42162;51.958;5.426;2023-08-12T08:50:30;101472.03;;;20.62;86.37
55763;BME280;42162;51.958;5.426;2023-08-12T08:52:58;101472.47;;;20.70;86.42
55763;BME280;42162;51.958;5.426;2023-08-12T08:55:26;101480.03;;;20.76;86.13
55763;BME280;42162;51.958;5.426;2023-08-12T08:57:54;101477.22;;;20.79;86.04
55763;BME280;42162;51.958;5.426;2023-08-12T09:00:27;101472.72;;;20.82;85.76
55763;BME280;42162;51.958;5.426;2023-08-12T09:02:56;101481.38;;;20.84;85.95
55763;BME280;42162;51.958;5.426;2023-08-12T09:05:25;101481.09;;;20.88;85.85
55763;BME280;42162;51.958;5.426;2023-08-12T09:07:53;101490.66;;;20.91;85.74
55763;BME280;42162;51.958;5.426;2023-08-12T09:10:23;101499.69;;;20.87;84.97
55763;BME280;42162;51.958;5.426;2023-08-12T09:12:55;101501.00;;;20.79;84.58
55763;BME280;42162;51.958;5.426;2023-08-12T09:15:22;101512.66;;;20.75;84.31
55763;BME280;42162;51.958;5.426;2023-08-12T09:17:50;101496.22;;;20.70;83.53
55763;BME280;42162;51.958;5.426;2023-08-12T09:20:18;101508.44;;;20.71;83.02
55763;BME280;42162;51.958;5.426;2023-08-12T09:22:45;101500.38;;;20.74;82.86
55763;BME280;42162;51.958;5.426;2023-08-12T09:25:12;101491.38;;;20.78;82.40
55763;BME280;42162;51.958;5.426;2023-08-12T09:27:39;101480.63;;;20.82;82.53
55763;BME280;42162;51.958;5.426;2023-08-12T09:30:07;101491.00;;;20.85;82.33
55763;BME280;42162;51.958;5.426;2023-08-12T09:32:35;101508.28;;;20.90;82.81
55763;BME280;42162;51.958;5.426;2023-08-12T09:35:02;101518.41;;;20.98;82.42
55763;BME280;42162;51.958;5.426;2023-08-12T09:37:32;101528.63;;;21.04;82.23
55763;BME280;42162;51.958;5.426;2023-08-12T09:39:59;101526.81;;;21.05;81.96
55763;BME280;42162;51.958;5.426;2023-08-12T09:42:27;101543.34;;;21.08;82.20
55763;BME280;42162;51.958;5.426;2023-08-12T09:44:56;101542.66;;;21.05;82.15
55763;BME280;42162;51.958;5.426;2023-08-12T09:47:25;101537.28;;;21.06;82.00
55763;BME280;42162;51.958;5.426;2023-08-12T09:49:52;101530.13;;;21.08;81.85
55763;BME280;42162;51.958;5.426;2023-08-12T09:52:19;101544.59;;;21.17;81.92
55763;BME280;42162;51.958;5.426;2023-08-12T09:54:47;101549.25;;;21.28;82.27
55763;BME280;42162;51.958;5.426;2023-08-12T09:57:17;101552.19;;;21.38;81.44
55763;BME280;42162;51.958;5.426;2023-08-12T09:59:45;101556.38;;;21.42;81.48
55763;BME280;42162;51.958;5.426;2023-08-12T10:02:15;101563.75;;;21.51;81.53
55763;BME280;42162;51.958;5.426;2023-08-12T10:04:46;101539.53;;;21.59;80.76
55763;BME280;42162;51.958;5.426;2023-08-12T10:07:13;101541.34;;;21.73;80.81
55763;BME280;42162;51.958;5.426;2023-08-12T10:09:41;101543.13;;;21.87;80.70
55763;BME280;42162;51.958;5.426;2023-08-12T10:12:09;101542.47;;;21.98;80.01
55763;BME280;42162;51.958;5.426;2023-08-12T10:14:37;101544.66;;;22.06;80.68
55763;BME280;42162;51.958;5.426;2023-08-12T10:17:05;101540.66;;;22.13;80.10
55763;BME280;42162;51.958;5.426;2023-08-12T10:19:33;101540.31;;;22.19;79.68
55763;BME280;42162;51.958;5.426;2023-08-12T10:22:08;101539.06;;;22.25;78.67
55763;BME280;42162;51.958;5.426;2023-08-12T10:24:38;101529.88;;;22.30;78.57
55763;BME280;42162;51.958;5.426;2023-08-12T10:27:06;101538.19;;;22.39;79.66
55763;BME280;42162;51.958;5.426;2023-08-12T10:29:34;101541.22;;;22.47;79.13
55763;BME280;42162;51.958;5.426;2023-08-12T10:32:01;101539.88;;;22.54;78.70
55763;BME280;42162;51.958;5.426;2023-08-12T10:34:29;101535.25;;;22.58;78.74
55763;BME280;42162;51.958;5.426;2023-08-12T10:36:58;101535.88;;;22.61;78.25
55763;BME280;42162;51.958;5.426;2023-08-12T10:39:33;101530.28;;;22.66;78.33
55763;BME280;42162;51.958;5.426;2023-08-12T10:42:00;101542.09;;;22.75;78.34
55763;BME280;42162;51.958;5.426;2023-08-12T10:44:49;101531.09;;;22.81;77.77
55763;BME280;42162;51.958;5.426;2023-08-12T10:47:20;101531.72;;;22.85;77.16
55763;BME280;42162;51.958;5.426;2023-08-12T10:49:52;101530.88;;;22.84;76.31
55763;BME280;42162;51.958;5.426;2023-08-12T10:52:26;101533.41;;;22.86;76.27
55763;BME280;42162;51.958;5.426;2023-08-12T10:54:54;101537.38;;;22.93;75.86
55763;BME280;42162;51.958;5.426;2023-08-12T10:57:37;101530.72;;;23.00;76.46
55763;BME280;42162;51.958;5.426;2023-08-12T11:00:05;101536.34;;;23.08;75.30
55763;BME280;42162;51.958;5.426;2023-08-12T11:02:37;101536.78;;;23.15;75.00
55763;BME280;42162;51.958;5.426;2023-08-12T11:05:08;101526.81;;;23.19;74.75
55763;BME280;42162;51.958;5.426;2023-08-12T11:07:47;101527.53;;;23.22;74.38
55763;BME280;42162;51.958;5.426;2023-08-12T11:15:34;101533.16;;;23.31;73.45
55763;BME280;42162;51.958;5.426;2023-08-12T11:18:24;101531.75;;;23.38;72.96
55763;BME280;42162;51.958;5.426;2023-08-12T11:20:49;101534.41;;;23.38;71.96
55763;BME280;42162;51.958;5.426;2023-08-12T11:23:16;101531.88;;;23.36;71.27
55763;BME280;42162;51.958;5.426;2023-08-12T11:25:44;101540.78;;;23.35;71.37
55763;BME280;42162;51.958;5.426;2023-08-12T11:28:11;101538.88;;;23.37;71.27
55763;BME280;42162;51.958;5.426;2023-08-12T11:30:41;101535.91;;;23.42;70.97
55763;BME280;42162;51.958;5.426;2023-08-12T11:33:09;101539.19;;;23.46;70.79
55763;BME280;42162;51.958;5.426;2023-08-12T11:35:37;101534.44;;;23.51;71.03
55763;BME280;42162;51.958;5.426;2023-08-12T11:38:05;101529.78;;;23.54;70.76
55763;BME280;42162;51.958;5.426;2023-08-12T11:40:32;101530.53;;;23.56;70.21
55763;BME280;42162;51.958;5.426;2023-08-12T11:42:59;101536.66;;;23.57;70.71
55763;BME280;42162;51.958;5.426;2023-08-12T11:45:26;101525.84;;;23.60;69.78
55763;BME280;42162;51.958;5.426;2023-08-12T11:47:55;101530.72;;;23.66;69.91
55763;BME280;42162;51.958;5.426;2023-08-12T11:50:25;101527.88;;;23.69;70.21
55763;BME280;42162;51.958;5.426;2023-08-12T11:52:53;101528.50;;;23.73;69.70
55763;BME280;42162;51.958;5.426;2023-08-12T11:55:22;101532.63;;;23.77;68.51
55763;BME280;42162;51.958;5.426;2023-08-12T11:57:51;101518.09;;;23.83;67.11
55763;BME280;42162;51.958;5.426;2023-08-12T12:00:19;101529.34;;;23.86;67.30
55763;BME280;42162;51.958;5.426;2023-08-12T12:02:49;101522.66;;;23.81;66.49
55763;BME280;42162;51.958;5.426;2023-08-12T12:05:18;101531.78;;;23.77;66.95
55763;BME280;42162;51.958;5.426;2023-08-12T12:07:49;101527.75;;;23.71;67.00
55763;BME280;42162;51.958;5.426;2023-08-12T12:10:26;101529.13;;;23.64;66.43
55763;BME280;42162;51.958;5.426;2023-08-12T12:12:59;101529.75;;;23.67;66.09
55763;BME280;42162;51.958;5.426;2023-08-12T12:15:27;101530.06;;;23.76;66.56
55763;BME280;42162;51.958;5.426;2023-08-12T12:17:54;101532.44;;;23.80;65.99
55763;BME280;42162;51.958;5.426;2023-08-12T12:20:21;101526.19;;;23.81;65.36
55763;BME280;42162;51.958;5.426;2023-08-12T12:22:49;101533.91;;;23.84;65.49
55763;BME280;42162;51.958;5.426;2023-08-12T12:25:18;101543.47;;;23.87;64.68
55763;BME280;42162;51.958;5.426;2023-08-12T12:27:46;101537.72;;;23.93;64.31
55763;BME280;42162;51.958;5.426;2023-08-12T12:30:15;101536.88;;;23.93;63.23
55763;BME280;42162;51.958;5.426;2023-08-12T12:32:43;101544.53;;;23.97;63.75
55763;BME280;42162;51.958;5.426;2023-08-12T12:35:10;101539.25;;;23.97;63.11
55763;BME280;42162;51.958;5.426;2023-08-12T12:37:38;101544.41;;;23.99;63.99
55763;BME280;42162;51.958;5.426;2023-08-12T12:40:06;101539.75;;;24.02;63.81
55763;BME280;42162;51.958;5.426;2023-08-12T12:42:34;101543.88;;;24.07;62.87
55763;BME280;42162;51.958;5.426;2023-08-12T12:45:03;101543.75;;;24.08;62.94
55763;BME280;42162;51.958;5.426;2023-08-12T12:47:30;101545.59;;;24.08;62.87
55763;BME280;42162;51.958;5.426;2023-08-12T12:49:57;101544.63;;;24.09;62.75
55763;BME280;42162;51.958;5.426;2023-08-12T12:52:24;101541.22;;;24.07;61.31
55763;BME280;42162;51.958;5.426;2023-08-12T12:54:52;101549.69;;;24.12;62.30
55763;BME280;42162;51.958;5.426;2023-08-12T12:57:19;101553.09;;;24.14;62.00
55763;BME280;42162;51.958;5.426;2023-08-12T12:59:53;101552.34;;;24.12;61.60
55763;BME280;42162;51.958;5.426;2023-08-12T13:02:20;101546.09;;;24.13;60.51